sensor_id;sensor_type;location;lat;lon;timestamp;pressure;altitude;pressure_sealevel;temperature;humidity
31337;BME280;22846;42.654;23.314;2022-10-13T00:02:23;95246.53;;;24.96;50.87
31337;BME280;22846;42.654;23.314;2022-10-13T00:04:48;95246.53;;;24.96;51.24
31337;BME280;22846;42.654;23.314;2022-10-13T00:07:14;95246.53;;;24.96;51.60
31337;BME280;22846;42.654;23.314;2022-10-13T00:09:39;95239.50;;;24.95;51.14
31337;BME280;22846;42.654;23.314;2022-10-13T00:12:05;95218.41;;;24.79;51.37
31337;BME280;22846;42.654;23.314;2022-10-13T00:14:30;95226.00;;;24.88;50.90
31337;BME280;22846;42.654;23.314;2022-10-13T00:16:56;95242.69;;;24.93;51.08
31337;BME280;22846;42.654;23.314;2022-10-13T00:19:21;95234.47;;;24.93;51.56
31337;BME280;22846;42.654;23.314;2022-10-13T00:21:47;95231.75;;;24.93;51.11
31337;BME280;22846;42.654;23.314;2022-10-13T00:24:12;95232.50;;;24.94;51.47
31337;BME280;22846;42.654;23.314;2022-10-13T00:26:37;95227.03;;;24.94;51.02
31337;BME280;22846;42.654;23.314;2022-10-13T00:29:03;95225.50;;;24.93;51.64
31337;BME280;22846;42.654;23.314;2022-10-13T00:31:30;95228.22;;;24.93;51.36
31337;BME280;22846;42.654;23.314;2022-10-13T00:34:00;95209.69;;;24.84;50.97
31337;BME280;22846;42.654;23.314;2022-10-13T00:36:27;95219.69;;;24.91;51.24
31337;BME280;22846;42.654;23.314;2022-10-13T00:38:53;95219.25;;;24.92;51.54
31337;BME280;22846;42.654;23.314;2022-10-13T00:41:19;95215.84;;;24.88;50.99
31337;BME280;22846;42.654;23.314;2022-10-13T00:46:20;95206.78;;;24.91;51.17
31337;BME280;22846;42.654;23.314;2022-10-13T00:48:47;95211.50;;;24.91;50.86
31337;BME280;22846;42.654;23.314;2022-10-13T00:51:17;95214.63;;;24.89;51.56
31337;BME280;22846;42.654;23.314;2022-10-13T00:53:45;95211.50;;;24.91;51.43
31337;BME280;22846;42.654;23.314;2022-10-13T00:56:12;95209.94;;;24.90;51.41
31337;BME280;22846;42.654;23.314;2022-10-13T00:58:39;95207.66;;;24.88;51.03
31337;BME280;22846;42.654;23.314;2022-10-13T01:01:05;95209.94;;;24.90;51.57
31337;BME280;22846;42.654;23.314;2022-10-13T01:03:32;95215.41;;;24.90;51.41
31337;BME280;22846;42.654;23.314;2022-10-13T01:05:59;95204.91;;;24.88;50.73
31337;BME280;22846;42.654;23.314;2022-10-13T01:08:27;95209.59;;;24.88;50.78
31337;BME280;22846;42.654;23.314;2022-10-13T01:13:49;95202.69;;;24.83;51.20
31337;BME280;22846;42.654;23.314;2022-10-13T01:16:36;95210.38;;;24.88;51.36
31337;BME280;22846;42.654;23.314;2022-10-13T01:22:02;95205.31;;;24.87;50.99
31337;BME280;22846;42.654;23.314;2022-10-13T01:24:40;95206.13;;;24.87;51.28
31337;BME280;22846;42.654;23.314;2022-10-13T01:35:05;95199.28;;;24.79;51.35
31337;BME280;22846;42.654;23.314;2022-10-13T01:37:46;95204.97;;;24.85;51.24
31337;BME280;22846;42.654;23.314;2022-10-13T01:40:28;95201.66;;;24.77;51.26
31337;BME280;22846;42.654;23.314;2022-10-13T01:43:02;95214.41;;;24.84;50.53
31337;BME280;22846;42.654;23.314;2022-10-13T01:45:32;95212.41;;;24.84;51.55
31337;BME280;22846;42.654;23.314;2022-10-13T01:48:00;95206.19;;;24.84;50.89
31337;BME280;22846;42.654;23.314;2022-10-13T01:50:28;95206.19;;;24.84;50.89
31337;BME280;22846;42.654;23.314;2022-10-13T01:52:55;95208.16;;;24.83;50.99
31337;BME280;22846;42.654;23.314;2022-10-13T01:55:23;95191.47;;;24.78;51.26
31337;BME280;22846;42.654;23.314;2022-10-13T01:57:49;95190.28;;;24.79;51.41
31337;BME280;22846;42.654;23.314;2022-10-13T02:00:20;95201.91;;;24.83;51.46
31337;BME280;22846;42.654;23.314;2022-10-13T02:10:45;95201.13;;;24.82;51.40
31337;BME280;22846;42.654;23.314;2022-10-13T02:13:13;95194.91;;;24.82;51.07
31337;BME280;22846;42.654;23.314;2022-10-13T02:15:46;95194.56;;;24.80;51.27
31337;BME280;22846;42.654;23.314;2022-10-13T02:18:16;95191.38;;;24.81;51.10
31337;BME280;22846;42.654;23.314;2022-10-13T02:20:43;95186.72;;;24.82;51.20
31337;BME280;22846;42.654;23.314;2022-10-13T02:23:13;95190.28;;;24.79;51.37
31337;BME280;22846;42.654;23.314;2022-10-13T02:25:39;95189.44;;;24.82;50.98
31337;BME280;22846;42.654;23.314;2022-10-13T02:28:05;95181.47;;;24.72;50.46
31337;BME280;22846;42.654;23.314;2022-10-13T02:30:32;95161.31;;;24.66;50.75
31337;BME280;22846;42.654;23.314;2022-10-13T02:33:01;95183.28;;;24.78;50.85
31337;BME280;22846;42.654;23.314;2022-10-13T02:35:27;95183.63;;;24.80;50.48
31337;BME280;22846;42.654;23.314;2022-10-13T02:37:54;95177.41;;;24.79;50.61
31337;BME280;22846;42.654;23.314;2022-10-13T02:40:19;95188.34;;;24.79;50.90
31337;BME280;22846;42.654;23.314;2022-10-13T02:42:44;95182.09;;;24.79;50.42
31337;BME280;22846;42.654;23.314;2022-10-13T02:45:10;95180.13;;;24.79;50.65
31337;BME280;22846;42.654;23.314;2022-10-13T02:47:35;95175.06;;;24.78;51.14
31337;BME280;22846;42.654;23.314;2022-10-13T02:50:01;95168.84;;;24.77;50.96
31337;BME280;22846;42.654;23.314;2022-10-13T02:52:26;95171.59;;;24.77;50.93
31337;BME280;22846;42.654;23.314;2022-10-13T02:54:52;95174.31;;;24.77;50.74
31337;BME280;22846;42.654;23.314;2022-10-13T02:57:17;95168.06;;;24.77;50.57
31337;BME280;22846;42.654;23.314;2022-10-13T02:59:43;95164.94;;;24.78;50.80
31337;BME280;22846;42.654;23.314;2022-10-13T03:02:08;95159.09;;;24.77;50.81
31337;BME280;22846;42.654;23.314;2022-10-13T03:04:34;95167.31;;;24.77;51.20
31337;BME280;22846;42.654;23.314;2022-10-13T03:06:59;95161.84;;;24.77;51.13
31337;BME280;22846;42.654;23.314;2022-10-13T03:09:26;95170.81;;;24.77;50.83
31337;BME280;22846;42.654;23.314;2022-10-13T03:11:52;95155.59;;;24.76;51.11
31337;BME280;22846;42.654;23.314;2022-10-13T03:14:17;95161.94;;;24.73;50.68
31337;BME280;22846;42.654;23.314;2022-10-13T03:16:43;95166.53;;;24.76;51.14
31337;BME280;22846;42.654;23.314;2022-10-13T03:19:08;95166.53;;;24.76;50.89
31337;BME280;22846;42.654;23.314;2022-10-13T03:21:33;95165.00;;;24.75;51.19
31337;BME280;22846;42.654;23.314;2022-10-13T03:23:59;95167.41;;;24.73;51.30
31337;BME280;22846;42.654;23.314;2022-10-13T03:26:24;95162.00;;;24.70;51.14
31337;BME280;22846;42.654;23.314;2022-10-13T03:28:50;95164.41;;;24.68;51.36
31337;BME280;22846;42.654;23.314;2022-10-13T03:31:17;95178.75;;;24.72;51.33
31337;BME280;22846;42.654;23.314;2022-10-13T03:33:43;95185.34;;;24.74;50.86
31337;BME280;22846;42.654;23.314;2022-10-13T03:36:10;95175.59;;;24.73;51.00
31337;BME280;22846;42.654;23.314;2022-10-13T03:38:37;95170.31;;;24.66;51.30
31337;BME280;22846;42.654;23.314;2022-10-13T03:41:06;95185.34;;;24.74;50.96
31337;BME280;22846;42.654;23.314;2022-10-13T03:43:33;95183.78;;;24.73;51.40
31337;BME280;22846;42.654;23.314;2022-10-13T03:46:00;95180.28;;;24.73;51.49
31337;BME280;22846;42.654;23.314;2022-10-13T03:48:26;95178.31;;;24.73;51.46
31337;BME280;22846;42.654;23.314;2022-10-13T03:50:52;95178.31;;;24.73;51.53
31337;BME280;22846;42.654;23.314;2022-10-13T03:53:18;95165.50;;;24.70;51.25
31337;BME280;22846;42.654;23.314;2022-10-13T03:55:54;95165.75;;;24.76;51.77
31337;BME280;22846;42.654;23.314;2022-10-13T03:58:22;95169.59;;;24.78;51.67
31337;BME280;22846;42.654;23.314;2022-10-13T04:00:48;95163.38;;;24.77;51.67
31337;BME280;22846;42.654;23.314;2022-10-13T04:03:14;95162.09;;;24.82;52.31
31337;BME280;22846;42.654;23.314;2022-10-13T04:05:40;95161.66;;;24.83;52.38
31337;BME280;22846;42.654;23.314;2022-10-13T04:08:05;95155.75;;;24.85;53.07
31337;BME280;22846;42.654;23.314;2022-10-13T04:10:31;95165.50;;;24.86;52.72
31337;BME280;22846;42.654;23.314;2022-10-13T04:12:56;95164.75;;;24.85;51.94
31337;BME280;22846;42.654;23.314;2022-10-13T04:15:22;95158.84;;;24.87;52.30
31337;BME280;22846;42.654;23.314;2022-10-13T04:17:47;95165.84;;;24.88;51.59
31337;BME280;22846;42.654;23.314;2022-10-13T04:20:13;95158.84;;;24.87;52.79
31337;BME280;22846;42.654;23.314;2022-10-13T04:22:38;95159.28;;;24.85;52.74
31337;BME280;22846;42.654;23.314;2022-10-13T04:25:04;95160.81;;;24.86;53.13
31337;BME280;22846;42.654;23.314;2022-10-13T04:27:30;95152.72;;;24.83;52.76
31337;BME280;22846;42.654;23.314;2022-10-13T04:29:56;95161.19;;;24.88;53.59
31337;BME280;22846;42.654;23.314;2022-10-13T04:32:22;95159.94;;;24.89;53.90
31337;BME280;22846;42.654;23.314;2022-10-13T04:34:47;95157.75;;;24.69;43.81
31337;BME280;22846;42.654;23.314;2022-10-13T04:37:13;95123.75;;;24.34;48.08
31337;BME280;22846;42.654;23.314;2022-10-13T04:39:38;95159.69;;;24.52;49.27
31337;BME280;22846;42.654;23.314;2022-10-13T04:42:04;95160.88;;;24.51;49.57
31337;BME280;22846;42.654;23.314;2022-10-13T04:44:29;95153.38;;;24.55;50.71
31337;BME280;22846;42.654;23.314;2022-10-13T04:46:55;95159.94;;;24.58;50.77
31337;BME280;22846;42.654;23.314;2022-10-13T04:49:20;95157.56;;;24.60;50.90
31337;BME280;22846;42.654;23.314;2022-10-13T04:51:46;95148.94;;;24.61;50.80
31337;BME280;22846;42.654;23.314;2022-10-13T04:54:11;95151.31;;;24.59;51.26
31337;BME280;22846;42.654;23.314;2022-10-13T04:56:37;95163.28;;;24.65;51.42
31337;BME280;22846;42.654;23.314;2022-10-13T04:59:03;95174.97;;;24.66;50.88
31337;BME280;22846;42.654;23.314;2022-10-13T05:01:30;95170.31;;;24.66;50.82
31337;BME280;22846;42.654;23.314;2022-10-13T05:03:59;95177.28;;;24.67;50.70
31337;BME280;22846;42.654;23.314;2022-10-13T05:06:30;95170.63;;;24.68;50.77
31337;BME280;22846;42.654;23.314;2022-10-13T05:08:56;95158.00;;;24.58;51.23
31337;BME280;22846;42.654;23.314;2022-10-13T05:11:22;95174.13;;;24.69;50.69
31337;BME280;22846;42.654;23.314;2022-10-13T05:13:48;95172.16;;;24.69;51.25
31337;BME280;22846;42.654;23.314;2022-10-13T05:16:16;95179.16;;;24.70;50.95
31337;BME280;22846;42.654;23.314;2022-10-13T05:18:42;95188.16;;;24.71;51.06
31337;BME280;22846;42.654;23.314;2022-10-13T05:21:34;95183.97;;;24.66;51.36
31337;BME280;22846;42.654;23.314;2022-10-13T05:23:59;95194.38;;;24.71;51.07
31337;BME280;22846;42.654;23.314;2022-10-13T05:26:27;95187.81;;;24.69;50.78
31337;BME280;22846;42.654;23.314;2022-10-13T05:28:56;95186.94;;;24.72;51.05
31337;BME280;22846;42.654;23.314;2022-10-13T05:31:24;95193.63;;;24.71;50.84
31337;BME280;22846;42.654;23.314;2022-10-13T05:33:50;95197.88;;;24.72;51.03
31337;BME280;22846;42.654;23.314;2022-10-13T05:36:22;95201.03;;;24.70;50.91
31337;BME280;22846;42.654;23.314;2022-10-13T05:38:56;95205.31;;;24.71;50.98
31337;BME280;22846;42.654;23.314;2022-10-13T05:41:23;95208.03;;;24.71;50.76
31337;BME280;22846;42.654;23.314;2022-10-13T05:43:50;95212.75;;;24.71;50.79
31337;BME280;22846;42.654;23.314;2022-10-13T05:46:17;95211.53;;;24.72;51.01
31337;BME280;22846;42.654;23.314;2022-10-13T05:48:43;95220.53;;;24.72;50.50
31337;BME280;22846;42.654;23.314;2022-10-13T05:51:13;95224.44;;;24.71;50.22
31337;BME280;22846;42.654;23.314;2022-10-13T05:53:43;95221.72;;;24.71;50.48
31337;BME280;22846;42.654;23.314;2022-10-13T05:56:13;95222.47;;;24.72;50.53
31337;BME280;22846;42.654;23.314;2022-10-13T05:58:46;95226.00;;;24.72;50.63
31337;BME280;22846;42.654;23.314;2022-10-13T06:01:17;95237.28;;;24.74;50.26
31337;BME280;22846;42.654;23.314;2022-10-13T06:03:45;95238.81;;;24.75;50.62
31337;BME280;22846;42.654;23.314;2022-10-13T06:06:11;95234.09;;;24.76;50.36
31337;BME280;22846;42.654;23.314;2022-10-13T06:08:37;95212.41;;;24.69;50.13
31337;BME280;22846;42.654;23.314;2022-10-13T06:11:03;95218.81;;;24.78;50.14
31337;BME280;22846;42.654;23.314;2022-10-13T06:13:29;95226.59;;;24.79;50.66
31337;BME280;22846;42.654;23.314;2022-10-13T06:15:54;95227.72;;;24.82;50.72
31337;BME280;22846;42.654;23.314;2022-10-13T06:18:20;95219.50;;;24.82;50.39
31337;BME280;22846;42.654;23.314;2022-10-13T06:20:45;95220.19;;;24.86;50.75
31337;BME280;22846;42.654;23.314;2022-10-13T06:23:11;95222.91;;;24.86;50.70
31337;BME280;22846;42.654;23.314;2022-10-13T06:25:36;95220.19;;;24.86;50.33
31337;BME280;22846;42.654;23.314;2022-10-13T06:28:03;95230.63;;;24.91;50.59
31337;BME280;22846;42.654;23.314;2022-10-13T06:30:28;95223.53;;;24.93;50.56
31337;BME280;22846;42.654;23.314;2022-10-13T06:32:54;95225.09;;;24.94;50.69
31337;BME280;22846;42.654;23.314;2022-10-13T06:35:21;95216.00;;;24.97;50.37
31337;BME280;22846;42.654;23.314;2022-10-13T06:37:47;95222.63;;;25.00;50.77
31337;BME280;22846;42.654;23.314;2022-10-13T06:40:13;95207.13;;;24.93;50.55
31337;BME280;22846;42.654;23.314;2022-10-13T06:42:39;95216.28;;;25.03;50.28
31337;BME280;22846;42.654;23.314;2022-10-13T06:45:05;95218.16;;;25.06;50.57
31337;BME280;22846;42.654;23.314;2022-10-13T06:47:30;95217.72;;;25.07;50.19
31337;BME280;22846;42.654;23.314;2022-10-13T06:49:56;95201.84;;;25.02;50.27
31337;BME280;22846;42.654;23.314;2022-10-13T06:52:21;95208.69;;;25.10;50.44
31337;BME280;22846;42.654;23.314;2022-10-13T06:54:47;95208.28;;;25.12;49.93
31337;BME280;22846;42.654;23.314;2022-10-13T06:57:12;95207.88;;;25.13;50.37
31337;BME280;22846;42.654;23.314;2022-10-13T06:59:37;95208.63;;;25.14;50.09
31337;BME280;22846;42.654;23.314;2022-10-13T07:02:03;95213.66;;;25.15;50.39
31337;BME280;22846;42.654;23.314;2022-10-13T07:04:28;95206.22;;;25.16;50.26
31337;BME280;22846;42.654;23.314;2022-10-13T07:06:54;95207.78;;;25.17;50.16
31337;BME280;22846;42.654;23.314;2022-10-13T07:09:19;95199.13;;;25.18;50.19
31337;BME280;22846;42.654;23.314;2022-10-13T07:11:45;95206.91;;;25.20;50.17
31337;BME280;22846;42.654;23.314;2022-10-13T07:14:12;95195.63;;;25.18;50.11
31337;BME280;22846;42.654;23.314;2022-10-13T07:16:38;95196.38;;;25.18;50.22
31337;BME280;22846;42.654;23.314;2022-10-13T07:19:03;95193.22;;;25.20;50.12
31337;BME280;22846;42.654;23.314;2022-10-13T07:21:29;95196.66;;;25.24;50.19
31337;BME280;22846;42.654;23.314;2022-10-13T07:23:54;95205.19;;;25.26;50.01
31337;BME280;22846;42.654;23.314;2022-10-13T07:26:20;95206.31;;;25.28;49.92
31337;BME280;22846;42.654;23.314;2022-10-13T07:28:45;95209.78;;;25.29;49.78
31337;BME280;22846;42.654;23.314;2022-10-13T07:31:14;95205.88;;;25.30;49.90
31337;BME280;22846;42.654;23.314;2022-10-13T07:33:41;95206.22;;;25.32;50.14
31337;BME280;22846;42.654;23.314;2022-10-13T07:36:07;95199.53;;;25.33;50.01
31337;BME280;22846;42.654;23.314;2022-10-13T07:38:33;95202.63;;;25.35;50.36
31337;BME280;22846;42.654;23.314;2022-10-13T07:41:03;95202.19;;;25.36;50.40
31337;BME280;22846;42.654;23.314;2022-10-13T07:43:29;95200.22;;;25.37;50.23
31337;BME280;22846;42.654;23.314;2022-10-13T07:45:57;95202.53;;;25.38;50.14
31337;BME280;22846;42.654;23.314;2022-10-13T07:48:23;95198.59;;;25.39;50.39
31337;BME280;22846;42.654;23.314;2022-10-13T07:50:48;95200.16;;;25.40;49.80
31337;BME280;22846;42.654;23.314;2022-10-13T07:53:14;95206.72;;;25.43;50.11
31337;BME280;22846;42.654;23.314;2022-10-13T07:55:39;95198.50;;;25.43;50.10
31337;BME280;22846;42.654;23.314;2022-10-13T07:58:05;95205.53;;;25.44;50.02
31337;BME280;22846;42.654;23.314;2022-10-13T08:00:30;95201.59;;;25.45;50.12
31337;BME280;22846;42.654;23.314;2022-10-13T08:02:56;95164.91;;;25.26;49.84
31337;BME280;22846;42.654;23.314;2022-10-13T08:05:21;95186.03;;;25.42;50.03
31337;BME280;22846;42.654;23.314;2022-10-13T08:07:46;95188.22;;;25.47;49.92
31337;BME280;22846;42.654;23.314;2022-10-13T08:10:12;95197.22;;;25.47;50.13
31337;BME280;22846;42.654;23.314;2022-10-13T08:12:38;95196.78;;;25.49;49.80
31337;BME280;22846;42.654;23.314;2022-10-13T08:15:05;95192.84;;;25.50;49.89
31337;BME280;22846;42.654;23.314;2022-10-13T08:17:31;95185.94;;;25.45;49.59
31337;BME280;22846;42.654;23.314;2022-10-13T08:19:56;95191.66;;;25.51;49.89
31337;BME280;22846;42.654;23.314;2022-10-13T08:22:22;95186.53;;;25.53;49.98
31337;BME280;22846;42.654;23.314;2022-10-13T08:24:47;95187.28;;;25.53;49.66
31337;BME280;22846;42.654;23.314;2022-10-13T08:27:19;95183.44;;;25.51;49.74
31337;BME280;22846;42.654;23.314;2022-10-13T08:29:46;95181.81;;;25.53;49.64
31337;BME280;22846;42.654;23.314;2022-10-13T08:32:11;95186.09;;;25.54;49.35
31337;BME280;22846;42.654;23.314;2022-10-13T08:34:37;95179.06;;;25.53;49.85
31337;BME280;22846;42.654;23.314;2022-10-13T08:37:02;95181.06;;;25.53;49.69
31337;BME280;22846;42.654;23.314;2022-10-13T08:39:28;95172.84;;;25.53;49.50
31337;BME280;22846;42.654;23.314;2022-10-13T08:41:55;95179.06;;;25.53;49.78
31337;BME280;22846;42.654;23.314;2022-10-13T08:47:14;95161.31;;;25.45;49.68
31337;BME280;22846;42.654;23.314;2022-10-13T08:49:42;95166.94;;;25.54;49.57
31337;BME280;22846;42.654;23.314;2022-10-13T08:52:20;95170.88;;;25.53;49.50
31337;BME280;22846;42.654;23.314;2022-10-13T08:54:46;95163.00;;;25.55;49.73
31337;BME280;22846;42.654;23.314;2022-10-13T08:57:12;95158.28;;;25.56;49.84
31337;BME280;22846;42.654;23.314;2022-10-13T08:59:38;95155.97;;;25.54;49.83
31337;BME280;22846;42.654;23.314;2022-10-13T09:02:20;95154.78;;;25.55;50.02
31337;BME280;22846;42.654;23.314;2022-10-13T09:04:47;95153.59;;;25.56;49.84
31337;BME280;22846;42.654;23.314;2022-10-13T09:07:18;95153.59;;;25.56;49.83
31337;BME280;22846;42.654;23.314;2022-10-13T09:09:49;95152.03;;;25.55;49.70
31337;BME280;22846;42.654;23.314;2022-10-13T09:12:16;95150.41;;;25.58;49.96
31337;BME280;22846;42.654;23.314;2022-10-13T09:14:58;95153.59;;;25.56;50.07
31337;BME280;22846;42.654;23.314;2022-10-13T09:17:26;95151.59;;;25.57;49.72
31337;BME280;22846;42.654;23.314;2022-10-13T09:22:38;95131.84;;;25.49;49.69
31337;BME280;22846;42.654;23.314;2022-10-13T09:35:37;95119.44;;;25.61;49.86
31337;BME280;22846;42.654;23.314;2022-10-13T09:40:34;95112.78;;;25.62;49.61
31337;BME280;22846;42.654;23.314;2022-10-13T09:43:02;95112.78;;;25.62;49.78
31337;BME280;22846;42.654;23.314;2022-10-13T09:45:30;95115.81;;;25.63;49.82
31337;BME280;22846;42.654;23.314;2022-10-13T09:48:05;95115.06;;;25.63;49.70
31337;BME280;22846;42.654;23.314;2022-10-13T09:50:33;95114.28;;;25.62;49.75
31337;BME280;22846;42.654;23.314;2022-10-13T09:55:43;95119.34;;;25.64;49.87
31337;BME280;22846;42.654;23.314;2022-10-13T09:58:23;95107.59;;;25.63;49.85
31337;BME280;22846;42.654;23.314;2022-10-13T10:00:50;95100.19;;;25.64;49.65
31337;BME280;22846;42.654;23.314;2022-10-13T10:03:25;95104.47;;;25.65;49.68
31337;BME280;22846;42.654;23.314;2022-10-13T10:05:56;95100.94;;;25.64;49.54
31337;BME280;22846;42.654;23.314;2022-10-13T10:11:19;95096.25;;;25.65;49.34
31337;BME280;22846;42.654;23.314;2022-10-13T10:13:46;95096.25;;;25.65;49.39
31337;BME280;22846;42.654;23.314;2022-10-13T10:16:30;95085.28;;;25.65;49.47
31337;BME280;22846;42.654;23.314;2022-10-13T10:21:43;95076.63;;;25.66;49.42
31337;BME280;22846;42.654;23.314;2022-10-13T10:29:48;95075.09;;;25.65;49.29
31337;BME280;22846;42.654;23.314;2022-10-13T10:35:10;95070.41;;;25.66;49.47
31337;BME280;22846;42.654;23.314;2022-10-13T10:43:20;95060.22;;;25.66;49.30
31337;BME280;22846;42.654;23.314;2022-10-13T10:45:48;95050.03;;;25.67;49.13
31337;BME280;22846;42.654;23.314;2022-10-13T10:50:39;95041.81;;;25.67;49.52
31337;BME280;22846;42.654;23.314;2022-10-13T10:53:12;95039.50;;;25.65;49.26
31337;BME280;22846;42.654;23.314;2022-10-13T11:01:05;95020.47;;;25.62;49.17
31337;BME280;22846;42.654;23.314;2022-10-13T11:08:46;95019.91;;;25.67;49.17
31337;BME280;22846;42.654;23.314;2022-10-13T11:16:57;95008.53;;;25.68;49.25
31337;BME280;22846;42.654;23.314;2022-10-13T11:19:32;95012.81;;;25.69;49.44
31337;BME280;22846;42.654;23.314;2022-10-13T11:43:17;94978.31;;;25.72;49.46
31337;BME280;22846;42.654;23.314;2022-10-13T11:49:42;94978.78;;;25.70;49.42
31337;BME280;22846;42.654;23.314;2022-10-13T11:54:49;94964.75;;;25.68;49.40
31337;BME280;22846;42.654;23.314;2022-10-13T11:57:19;94964.75;;;25.68;49.24
31337;BME280;22846;42.654;23.314;2022-10-13T11:59:48;94958.47;;;25.68;49.33
31337;BME280;22846;42.654;23.314;2022-10-13T12:02:16;94957.28;;;25.69;49.04
31337;BME280;22846;42.654;23.314;2022-10-13T12:04:43;94945.25;;;25.66;49.03
31337;BME280;22846;42.654;23.314;2022-10-13T12:07:13;94948.53;;;25.62;49.22
31337;BME280;22846;42.654;23.314;2022-10-13T12:09:51;94950.28;;;25.68;49.24
31337;BME280;22846;42.654;23.314;2022-10-13T12:12:19;94945.56;;;25.68;49.24
31337;BME280;22846;42.654;23.314;2022-10-13T12:14:48;94948.31;;;25.68;48.95
31337;BME280;22846;42.654;23.314;2022-10-13T12:19:48;94949.75;;;25.73;49.01
31337;BME280;22846;42.654;23.314;2022-10-13T12:22:14;94943.19;;;25.70;48.96
31337;BME280;22846;42.654;23.314;2022-10-13T12:24:39;94954.22;;;25.67;49.09
31337;BME280;22846;42.654;23.314;2022-10-13T12:27:20;94953.00;;;25.68;49.38
31337;BME280;22846;42.654;23.314;2022-10-13T12:29:46;94962.41;;;25.67;49.18
31337;BME280;22846;42.654;23.314;2022-10-13T12:32:37;94947.97;;;25.66;48.91
31337;BME280;22846;42.654;23.314;2022-10-13T12:35:21;94947.66;;;25.64;49.16
31337;BME280;22846;42.654;23.314;2022-10-13T12:37:48;94946.44;;;25.65;48.95
31337;BME280;22846;42.654;23.314;2022-10-13T12:40:15;94941.41;;;25.64;48.88
31337;BME280;22846;42.654;23.314;2022-10-13T12:42:43;94929.69;;;25.63;49.34
31337;BME280;22846;42.654;23.314;2022-10-13T12:45:17;94930.88;;;25.62;49.03
31337;BME280;22846;42.654;23.314;2022-10-13T12:58:18;94921.25;;;25.58;49.43
31337;BME280;22846;42.654;23.314;2022-10-13T13:00:56;94918.50;;;25.58;49.13
31337;BME280;22846;42.654;23.314;2022-10-13T13:03:26;94920.84;;;25.60;49.23
31337;BME280;22846;42.654;23.314;2022-10-13T13:06:33;94918.09;;;25.60;49.44
31337;BME280;22846;42.654;23.314;2022-10-13T13:09:20;94904.41;;;25.60;49.47
31337;BME280;22846;42.654;23.314;2022-10-13T13:11:47;94909.09;;;25.59;49.50
31337;BME280;22846;42.654;23.314;2022-10-13T13:14:36;94904.06;;;25.58;49.18
31337;BME280;22846;42.654;23.314;2022-10-13T13:19:45;94902.97;;;25.55;49.36
31337;BME280;22846;42.654;23.314;2022-10-13T13:22:11;94908.00;;;25.57;49.43
31337;BME280;22846;42.654;23.314;2022-10-13T13:24:37;94905.28;;;25.57;49.10
31337;BME280;22846;42.654;23.314;2022-10-13T13:29:44;94894.88;;;25.52;49.34
31337;BME280;22846;42.654;23.314;2022-10-13T13:32:14;94897.19;;;25.53;49.53
31337;BME280;22846;42.654;23.314;2022-10-13T13:34:40;94901.91;;;25.53;49.19
31337;BME280;22846;42.654;23.314;2022-10-13T13:37:56;94885.66;;;25.46;49.04
31337;BME280;22846;42.654;23.314;2022-10-13T13:39:57;94890.50;;;25.54;49.46
31337;BME280;22846;42.654;23.314;2022-10-13T13:42:23;94899.91;;;25.53;49.13
31337;BME280;22846;42.654;23.314;2022-10-13T13:44:48;94907.38;;;25.53;49.32
31337;BME280;22846;42.654;23.314;2022-10-13T13:47:16;94894.09;;;25.51;49.50
31337;BME280;22846;42.654;23.314;2022-10-13T13:49:43;94894.88;;;25.52;49.19
31337;BME280;22846;42.654;23.314;2022-10-13T13:52:08;94888.63;;;25.51;49.19
31337;BME280;22846;42.654;23.314;2022-10-13T13:54:34;94894.09;;;25.51;49.11
31337;BME280;22846;42.654;23.314;2022-10-13T13:56:59;94900.03;;;25.50;49.17
31337;BME280;22846;42.654;23.314;2022-10-13T13:59:24;94884.34;;;25.50;49.39
31337;BME280;22846;42.654;23.314;2022-10-13T14:01:50;94883.28;;;25.48;49.34
31337;BME280;22846;42.654;23.314;2022-10-13T14:04:15;94891.47;;;25.48;49.17
31337;BME280;22846;42.654;23.314;2022-10-13T14:06:40;94889.19;;;25.46;49.40
31337;BME280;22846;42.654;23.314;2022-10-13T14:09:06;94891.16;;;25.46;49.31
31337;BME280;22846;42.654;23.314;2022-10-13T14:11:31;94891.59;;;25.44;49.40
31337;BME280;22846;42.654;23.314;2022-10-13T14:13:57;94882.63;;;25.44;49.42
31337;BME280;22846;42.654;23.314;2022-10-13T14:16:26;94870.03;;;25.34;49.65
31337;BME280;22846;42.654;23.314;2022-10-13T14:18:52;94883.50;;;25.41;49.26
31337;BME280;22846;42.654;23.314;2022-10-13T14:21:19;94870.25;;;25.39;49.42
31337;BME280;22846;42.654;23.314;2022-10-13T14:23:45;94887.44;;;25.40;49.67
31337;BME280;22846;42.654;23.314;2022-10-13T14:26:11;94878.47;;;25.39;49.72
31337;BME280;22846;42.654;23.314;2022-10-13T14:28:39;94873.84;;;25.36;49.74
31337;BME280;22846;42.654;23.314;2022-10-13T14:31:06;94876.59;;;25.36;49.79
31337;BME280;22846;42.654;23.314;2022-10-13T14:33:32;94884.03;;;25.36;49.73
31337;BME280;22846;42.654;23.314;2022-10-13T14:36:02;94879.00;;;25.34;49.81
31337;BME280;22846;42.654;23.314;2022-10-13T14:38:28;94870.78;;;25.34;49.75
31337;BME280;22846;42.654;23.314;2022-10-13T14:41:01;94875.16;;;25.32;48.95
31337;BME280;22846;42.654;23.314;2022-10-13T14:43:27;94870.44;;;25.32;49.07
31337;BME280;22846;42.654;23.314;2022-10-13T14:45:53;94840.56;;;25.13;49.03
31337;BME280;22846;42.654;23.314;2022-10-13T14:48:19;94878.34;;;25.30;49.14
31337;BME280;22846;42.654;23.314;2022-10-13T14:50:45;94878.34;;;25.30;49.42
31337;BME280;22846;42.654;23.314;2022-10-13T14:53:10;94874.84;;;25.30;49.11
31337;BME280;22846;42.654;23.314;2022-10-13T14:55:42;94873.00;;;25.27;49.13
31337;BME280;22846;42.654;23.314;2022-10-13T14:58:09;94864.56;;;25.21;49.39
31337;BME280;22846;42.654;23.314;2022-10-13T15:00:34;94860.63;;;25.22;49.31
31337;BME280;22846;42.654;23.314;2022-10-13T15:03:01;94879.97;;;25.28;49.49
31337;BME280;22846;42.654;23.314;2022-10-13T15:05:26;94883.94;;;25.27;49.27